Active alerts

Gallatin County, MT
  Details for Gallatin County, MT Winter Storm Warning
Gallatin County, MT
  Details for Gallatin County, MT Hydrologic Outlook

Thunder radar more information blitzortung!


Rain radar more information rain snow radar



Nearby METAR Reports

   
KNUQ - Mountain View, CA
Updated: Jan 18 2021 9:35 pm
Clear  
Clear  
   Wind: NW 10.4 mph
Wind: NW 10.4 mph
Temperature: 66.2°F
Dew Point: 19.4°F
Humidity: 17%
Barometer: 29.89 inHg
Clouds: Clear
Visibility: 10 mi
Cloud details: Clear ft
KNUQ 190535Z AUTO 31009KT 10SM CLR 19/M07 A2989 RMK AO2
KSFO - San Francisco, CA
Updated: Jan 18 2021 8:56 pm
Few Clouds  
Few Clouds  
   Wind: North 24.2 mph
Wind: North 24.2 mph
Temperature: 66.2°F
Dew Point: 33.8°F
Humidity: 30%
Barometer: 29.89 inHg
Clouds: Few Clouds
Visibility: 10 mi
Cloud details: Few Clouds 20000 ft
KSFO 190456Z 36021KT 10SM FEW200 19/01 A2989 RMK AO2 PK WND 36027/0442 SLP120 T01890011
KSJC - San Jose, CA
Updated: Jan 18 2021 9:53 pm
Partly Cloudy  
Partly Cloudy  
   Wind: WNW 12.7 mph
Wind: WNW 12.7 mph
Temperature: 66.2°F
Dew Point: 15.8°F
Humidity: 14%
Barometer: 29.88 inHg
Clouds: Partly Cloudy
Visibility: 10 mi
Cloud details: Few Clouds 12000 ft,
Partly Cloudy 20000 ft
KSJC 190553Z 30011KT 10SM FEW120 SCT200 19/M09 A2988 RMK AO2 SLP116 T01891094 10250 20183 56004
KOAK - Oakland, CA
Updated: Jan 18 2021 9:53 pm
Few Clouds  
Few Clouds  
   Wind: North 5.8 mph
Wind: North 5.8 mph
Temperature: 69.8°F
Dew Point: 17.6°F
Humidity: 13%
Barometer: 29.9 inHg
Clouds: Few Clouds
Visibility: 10 mi
Cloud details: Few Clouds 18000 ft
KOAK 190553Z 35005KT 10SM FEW180 21/M08 A2990 RMK AO2 SLP126 T02061083 10272 20200 55001
KMRY - Monterey, CA
Updated: Jan 18 2021 9:54 pm
Clear  
Clear  
   Wind: SE 5.8 mph
Wind: SE 5.8 mph
Temperature: 51.8°F
Dew Point: 26.6°F
Humidity: 38%
Barometer: 29.83 inHg
Clouds: Clear
Visibility: 10 mi
Cloud details: Clear ft
KMRY 190554Z AUTO 13005KT 10SM CLR 11/M03 A2983 RMK AO2 SLP113 T01061033 10194 20106 58015
KWYS - West Yellowstone, MT
Updated: Nov 19 2020 5:05 am
NOT Current
Mostly Cloudy  
Mostly Cloudy  
   Wind: SSW 13.8 mph<br />Gust to 13.8 mph
Wind: SSW 13.8 mph
Gust to 13.8 mph
Temperature: 30.2°F
Wind Chill: 19.4°F
Dew Point: 28.4°F
Humidity: 93%
Barometer: 29.95 inHg
Clouds: Mostly Cloudy
Visibility: 10 mi
Cloud details: Few Clouds 5500 ft,
Partly Cloudy 6500 ft,
Mostly Cloudy 7500 ft
KWYS 191305Z AUTO 21012G17KT 10SM FEW055 SCT065 BKN075 M01/M02 A2995 RMK AO2
KDCA - Washington, DC
Updated: Jan 18 2021 9:52 pm
Overcast  
Overcast  
   Wind: SW 4.6 mph
Wind: SW 4.6 mph
Temperature: 35.6°F
Wind Chill: 32°F
Dew Point: 21.2°F
Humidity: 56%
Barometer: 30.1 inHg
Clouds: Overcast
Visibility: 10 mi
Cloud details: Overcast 7000 ft
KDCA 190552Z 22004KT 10SM OVC070 02/M06 A3010 RMK AO2 SLP191 T00221061 10050 20017 51002
KIAD - Washington Dulles, VA
Updated: Jan 18 2021 9:52 pm
Partly Cloudy  
Partly Cloudy  
   Wind: West 5.8 mph
Wind: West 5.8 mph
Temperature: 33.8°F
Wind Chill: 28.4°F
Dew Point: 19.4°F
Humidity: 56%
Barometer: 30.08 inHg
Clouds: Partly Cloudy
Visibility: 10 mi
Cloud details: Partly Cloudy 7000 ft
KIAD 190552Z 26005KT 10SM SCT070 01/M07 A3008 RMK AO2 SLP188 T00111067 10039 20011 51003
KMIA - Miami Beach, FL
Updated: Jan 18 2021 9:53 pm
Few Clouds  
Few Clouds  
   Wind: North 4.6 mph
Wind: North 4.6 mph
Temperature: 60.8°F
Dew Point: 51.8°F
Humidity: 72%
Barometer: 30.21 inHg
Clouds: Few Clouds
Visibility: 10 mi
Cloud details: Few Clouds 25000 ft
KMIA 190553Z 35004KT 10SM FEW250 16/11 A3021 RMK AO2 SLP230 T01610111 10194 20161 58006 $

Script developed by  Saratoga-weather.org Adapted for the template by  Weerstation Leuven

You find our weather info also at:

Weather Underground

Citizen Weather Observer Program (CWOP)

Equipment we use:

Weather-station
Ambient WS-1400-IP

Weather-program
Meteobridge

Weather-server
TP-LINK TL-MR3020

Ambient WS-1400-IP

Meteobridge

TP-LINK TL-MR3020